createdAt,value
2022-10-26T00:00:03.649Z,0.00
2022-10-26T00:01:03.673Z,0.00
2022-10-26T00:02:03.856Z,0.00
2022-10-26T00:03:03.635Z,0.00
2022-10-26T00:04:03.601Z,0.00
2022-10-26T00:05:03.602Z,0.00
2022-10-26T00:06:03.575Z,0.00
2022-10-26T00:07:03.601Z,0.00
2022-10-26T00:08:03.569Z,0.00
2022-10-26T00:09:03.552Z,0.00
2022-10-26T00:10:03.531Z,0.00
2022-10-26T00:11:03.525Z,0.00
2022-10-26T00:12:03.527Z,0.00
2022-10-26T00:13:03.498Z,0.00
2022-10-26T00:14:03.491Z,0.00
2022-10-26T00:15:03.477Z,0.00
2022-10-26T00:16:03.467Z,0.00
2022-10-26T00:17:03.454Z,0.00
2022-10-26T00:18:03.458Z,0.00
2022-10-26T00:19:03.435Z,0.00
2022-10-26T00:20:03.427Z,0.00
2022-10-26T00:21:03.407Z,0.00
2022-10-26T00:22:03.395Z,0.00
2022-10-26T00:23:03.424Z,0.00
2022-10-26T00:24:03.387Z,0.00
2022-10-26T00:25:03.363Z,0.00
2022-10-26T00:26:03.353Z,0.00
2022-10-26T00:27:03.349Z,0.00
2022-10-26T00:28:03.353Z,0.00
2022-10-26T00:29:03.338Z,0.00
2022-10-26T00:30:03.309Z,0.00
2022-10-26T00:31:03.303Z,0.00
2022-10-26T00:32:03.303Z,0.00
2022-10-26T00:33:03.279Z,0.00
2022-10-26T00:34:03.282Z,0.00
2022-10-26T00:35:10.734Z,0.00
2022-10-26T00:36:04.245Z,0.00
2022-10-26T00:37:03.236Z,0.00
2022-10-26T00:38:03.237Z,0.00
2022-10-26T00:39:03.246Z,0.00
2022-10-26T00:40:03.207Z,0.00
2022-10-26T00:41:03.224Z,0.00
2022-10-26T00:42:03.177Z,0.00
2022-10-26T00:43:03.169Z,0.00
2022-10-26T00:44:03.161Z,0.00
2022-10-26T00:45:03.146Z,0.00
2022-10-26T00:46:03.139Z,0.00
2022-10-26T00:47:03.128Z,0.00
2022-10-26T00:48:03.107Z,0.00
2022-10-26T00:49:03.131Z,0.00
2022-10-26T00:50:03.117Z,0.00
2022-10-26T00:51:03.097Z,0.00
2022-10-26T00:52:03.068Z,0.00
2022-10-26T00:53:03.060Z,0.00
2022-10-26T00:54:03.052Z,0.00
2022-10-26T00:55:03.077Z,0.00
2022-10-26T00:56:03.035Z,0.00
2022-10-26T00:57:03.009Z,0.00
2022-10-26T00:58:02.997Z,0.00
2022-10-26T00:59:02.996Z,0.00
2022-10-26T01:00:02.978Z,0.00
2022-10-26T01:01:03.030Z,0.00
2022-10-26T01:02:02.970Z,0.00
2022-10-26T01:03:02.950Z,0.00
2022-10-26T01:04:03.050Z,0.00
2022-10-26T01:05:02.972Z,0.00
2022-10-26T01:06:02.936Z,0.00
2022-10-26T01:07:02.902Z,0.00
2022-10-26T01:08:02.887Z,0.00
2022-10-26T01:09:02.881Z,0.00
2022-10-26T01:10:02.871Z,0.00
2022-10-26T01:11:02.875Z,0.00
2022-10-26T01:12:02.882Z,0.00
2022-10-26T01:13:02.835Z,0.00
2022-10-26T01:14:02.821Z,0.00
2022-10-26T01:15:02.818Z,0.00
2022-10-26T01:16:02.792Z,0.00
2022-10-26T01:18:02.790Z,0.00
2022-10-26T01:19:02.773Z,0.00
2022-10-26T01:20:02.752Z,0.00
2022-10-26T01:21:02.749Z,0.00
2022-10-26T01:22:02.732Z,0.00
2022-10-26T01:23:02.719Z,0.00
2022-10-26T01:24:02.720Z,0.00
2022-10-26T01:25:02.696Z,0.00
2022-10-26T01:26:02.699Z,0.00
2022-10-26T01:27:02.713Z,0.00
2022-10-26T01:28:02.673Z,0.00
2022-10-26T01:29:02.654Z,0.00
2022-10-26T01:30:02.656Z,0.00
2022-10-26T01:31:02.631Z,0.00
2022-10-26T01:32:02.630Z,0.00
2022-10-26T01:33:02.616Z,0.00
2022-10-26T01:34:02.603Z,0.00
2022-10-26T01:35:02.590Z,0.00
2022-10-26T01:36:02.573Z,0.00
2022-10-26T01:37:02.585Z,0.00
2022-10-26T01:38:02.568Z,0.00
2022-10-26T01:39:02.543Z,0.00
2022-10-26T01:40:02.528Z,0.00
2022-10-26T01:41:02.546Z,0.00
2022-10-26T01:42:02.508Z,0.00
2022-10-26T01:43:02.532Z,0.00
2022-10-26T01:44:02.481Z,0.00
2022-10-26T01:45:02.478Z,0.00
2022-10-26T01:46:02.479Z,0.00
2022-10-26T01:47:02.447Z,0.00
2022-10-26T01:48:02.444Z,0.00
2022-10-26T01:49:02.462Z,0.00
2022-10-26T01:50:02.431Z,0.00
2022-10-26T01:51:02.406Z,0.00
2022-10-26T01:52:02.397Z,0.00
2022-10-26T01:53:02.383Z,0.00
2022-10-26T01:54:02.376Z,0.00
2022-10-26T01:55:02.388Z,0.00
2022-10-26T01:56:02.349Z,0.00
2022-10-26T01:57:02.340Z,0.00
2022-10-26T01:58:02.339Z,0.00
2022-10-26T01:59:02.335Z,0.00
2022-10-26T02:00:02.323Z,0.00
2022-10-26T02:01:02.292Z,0.00
2022-10-26T02:02:02.285Z,0.00
2022-10-26T02:03:02.270Z,0.00
2022-10-26T02:04:02.380Z,0.00
2022-10-26T02:05:02.249Z,0.00
2022-10-26T02:06:02.273Z,0.00
2022-10-26T02:07:02.241Z,0.00
2022-10-26T02:08:02.216Z,0.00
2022-10-26T02:09:02.218Z,0.00
2022-10-26T02:10:02.194Z,0.00
2022-10-26T02:11:02.180Z,0.00
2022-10-26T02:12:02.185Z,0.00
2022-10-26T02:13:02.166Z,0.00
2022-10-26T02:14:02.159Z,0.00
2022-10-26T02:15:02.168Z,0.00
2022-10-26T02:16:02.134Z,0.00
2022-10-26T02:17:02.125Z,0.00
2022-10-26T02:18:02.111Z,0.00
2022-10-26T02:19:02.111Z,0.00
2022-10-26T02:20:02.092Z,0.00
2022-10-26T02:21:02.081Z,0.00
2022-10-26T02:22:02.065Z,0.00
2022-10-26T02:23:02.051Z,0.00
2022-10-26T02:24:02.113Z,0.00
2022-10-26T02:25:02.041Z,0.00
2022-10-26T02:26:02.031Z,0.00
2022-10-26T02:27:02.005Z,0.00
2022-10-26T02:28:01.990Z,0.00
2022-10-26T02:29:01.977Z,0.00
2022-10-26T02:30:01.995Z,0.00
2022-10-26T02:31:01.979Z,0.00
2022-10-26T02:32:01.954Z,0.00
2022-10-26T02:33:01.934Z,0.00
2022-10-26T02:34:01.928Z,0.00
2022-10-26T02:35:01.914Z,0.00
2022-10-26T02:36:01.912Z,0.00
2022-10-26T02:37:01.906Z,0.00
2022-10-26T02:38:01.887Z,0.00
2022-10-26T02:39:01.871Z,0.00
2022-10-26T02:40:01.879Z,0.00
2022-10-26T02:41:01.850Z,0.00
2022-10-26T02:42:01.878Z,0.00
2022-10-26T02:43:01.848Z,0.00
2022-10-26T02:44:01.816Z,0.00
2022-10-26T02:45:01.803Z,0.00
2022-10-26T02:46:01.804Z,0.00
2022-10-26T02:47:01.805Z,0.00
2022-10-26T02:48:01.799Z,0.00
2022-10-26T02:49:01.757Z,0.00
2022-10-26T02:50:01.767Z,0.00
2022-10-26T02:51:01.741Z,0.00
2022-10-26T02:52:01.729Z,0.00
2022-10-26T02:53:01.807Z,0.00
2022-10-26T02:54:01.705Z,0.00
2022-10-26T02:55:01.693Z,0.00
2022-10-26T02:56:01.717Z,0.00
2022-10-26T02:57:01.672Z,0.00
2022-10-26T02:58:01.683Z,0.00
2022-10-26T02:59:01.643Z,0.00
2022-10-26T03:00:01.710Z,0.00
2022-10-26T03:01:01.629Z,0.00
2022-10-26T03:02:01.622Z,0.00
2022-10-26T03:03:01.662Z,0.00
2022-10-26T03:04:01.751Z,0.00
2022-10-26T03:05:01.592Z,0.00
2022-10-26T03:06:01.572Z,0.00
2022-10-26T03:07:01.562Z,0.00
2022-10-26T03:08:01.558Z,0.00
2022-10-26T03:09:01.579Z,0.00
2022-10-26T03:10:01.539Z,0.00
2022-10-26T03:11:01.511Z,0.00
2022-10-26T03:12:01.507Z,0.00
2022-10-26T03:13:01.496Z,0.00
2022-10-26T03:14:01.485Z,0.00
2022-10-26T03:15:01.483Z,0.00
2022-10-26T03:16:01.473Z,0.00
2022-10-26T03:17:01.449Z,0.00
2022-10-26T03:18:01.436Z,0.00
2022-10-26T03:19:01.451Z,0.00
2022-10-26T03:20:01.429Z,0.00
2022-10-26T03:21:01.405Z,0.00
2022-10-26T03:22:01.405Z,0.00
2022-10-26T03:23:01.379Z,0.00
2022-10-26T03:24:01.370Z,0.00
2022-10-26T03:25:01.412Z,0.00
2022-10-26T03:26:01.349Z,0.00
2022-10-26T03:27:02.417Z,0.00
2022-10-26T03:28:01.375Z,0.00
2022-10-26T03:29:01.323Z,0.00
2022-10-26T03:30:01.322Z,0.00
2022-10-26T03:31:01.297Z,0.00
2022-10-26T03:32:01.289Z,0.00
2022-10-26T03:33:01.277Z,0.00
2022-10-26T03:34:01.258Z,0.00
2022-10-26T03:35:01.284Z,0.00
2022-10-26T03:36:01.238Z,0.00
2022-10-26T03:37:01.222Z,0.00
2022-10-26T03:38:01.233Z,0.00
2022-10-26T03:39:01.210Z,0.00
2022-10-26T03:40:01.205Z,0.00
2022-10-26T03:41:01.188Z,0.00
2022-10-26T03:42:01.173Z,0.00
2022-10-26T03:43:01.161Z,0.00
2022-10-26T03:44:01.154Z,0.00
2022-10-26T03:45:01.153Z,0.00
2022-10-26T03:46:01.139Z,0.00
2022-10-26T03:47:01.121Z,0.00
2022-10-26T03:48:01.112Z,0.00
2022-10-26T03:49:01.100Z,0.00
2022-10-26T03:50:01.199Z,0.00
2022-10-26T03:51:01.099Z,0.00
2022-10-26T03:52:01.067Z,0.00
2022-10-26T03:53:01.062Z,0.00
2022-10-26T03:54:01.036Z,0.00
2022-10-26T03:55:01.025Z,0.00
2022-10-26T03:56:01.018Z,0.00
2022-10-26T03:57:01.003Z,0.00
2022-10-26T03:58:01.004Z,0.00
2022-10-26T03:59:00.998Z,0.00
2022-10-26T04:00:00.972Z,0.00
2022-10-26T04:01:00.959Z,0.00
2022-10-26T04:02:00.994Z,0.00
2022-10-26T04:03:00.936Z,0.00
2022-10-26T04:04:00.994Z,0.00
2022-10-26T04:05:00.923Z,0.00
2022-10-26T04:06:00.921Z,0.00
2022-10-26T04:07:00.915Z,0.00
2022-10-26T04:08:00.890Z,0.00
2022-10-26T04:09:00.877Z,0.00
2022-10-26T04:10:00.858Z,0.00
2022-10-26T04:11:03.719Z,0.00
2022-10-26T04:12:00.872Z,0.00
2022-10-26T04:13:00.831Z,0.00
2022-10-26T04:14:00.818Z,0.00
2022-10-26T04:15:00.827Z,0.00
2022-10-26T04:16:00.795Z,0.00
2022-10-26T04:17:00.788Z,0.00
2022-10-26T04:18:00.785Z,0.00
2022-10-26T04:19:00.755Z,0.00
2022-10-26T04:20:00.746Z,0.00
2022-10-26T04:21:00.746Z,0.00
2022-10-26T04:22:00.751Z,0.00
2022-10-26T04:23:00.738Z,0.00
2022-10-26T04:24:00.703Z,0.00
2022-10-26T04:25:00.700Z,0.00
2022-10-26T04:26:00.683Z,0.00
2022-10-26T04:27:00.666Z,0.00
2022-10-26T04:28:00.668Z,0.00
2022-10-26T04:29:00.643Z,0.00
2022-10-26T04:30:00.638Z,0.00
2022-10-26T04:31:00.648Z,0.00
2022-10-26T04:32:00.617Z,0.00
2022-10-26T04:33:00.619Z,0.00
2022-10-26T04:34:00.606Z,0.00
2022-10-26T04:35:00.593Z,0.00
2022-10-26T04:36:00.623Z,0.00
2022-10-26T04:37:00.581Z,0.00
2022-10-26T04:38:00.563Z,0.00
2022-10-26T04:39:00.559Z,0.00
2022-10-26T04:40:00.608Z,0.00
2022-10-26T04:41:00.518Z,0.00
2022-10-26T04:42:00.509Z,0.00
2022-10-26T04:43:00.517Z,0.00
2022-10-26T04:44:00.482Z,0.00
2022-10-26T04:45:00.473Z,0.00
2022-10-26T04:46:00.461Z,0.00
2022-10-26T04:47:00.455Z,0.00
2022-10-26T04:48:00.457Z,0.00
2022-10-26T04:49:00.422Z,0.00
2022-10-26T04:50:00.427Z,0.00
2022-10-26T04:51:00.409Z,0.00
2022-10-26T04:52:00.394Z,0.00
2022-10-26T04:53:00.382Z,0.00
2022-10-26T04:54:00.370Z,0.00
2022-10-26T04:55:00.413Z,0.00
2022-10-26T04:56:00.345Z,0.00
2022-10-26T04:57:00.341Z,0.00
2022-10-26T04:58:01.520Z,0.00
2022-10-26T04:59:00.313Z,0.00
2022-10-26T05:00:00.307Z,0.00
2022-10-26T05:01:00.341Z,0.00
2022-10-26T05:02:00.478Z,0.00
2022-10-26T05:03:00.263Z,0.00
2022-10-26T05:04:00.260Z,0.00
2022-10-26T05:05:00.325Z,0.00
2022-10-26T05:06:00.266Z,0.00
2022-10-26T05:07:00.221Z,0.00
2022-10-26T05:08:00.219Z,0.00
2022-10-26T05:09:00.205Z,0.00
2022-10-26T05:10:00.193Z,0.00
2022-10-26T05:11:00.206Z,0.00
2022-10-26T05:12:00.184Z,0.00
2022-10-26T05:13:00.192Z,0.00
2022-10-26T05:14:00.152Z,0.00
2022-10-26T05:15:02.891Z,0.00
2022-10-26T05:16:01.122Z,0.00
2022-10-26T05:17:00.132Z,0.00
2022-10-26T05:18:00.105Z,0.00
2022-10-26T05:19:00.089Z,0.00
2022-10-26T05:20:00.086Z,0.00
2022-10-26T05:21:00.080Z,0.00
2022-10-26T05:22:00.096Z,0.00
2022-10-26T05:23:00.048Z,0.00
2022-10-26T05:24:00.038Z,0.00
2022-10-26T05:25:00.023Z,0.00
2022-10-26T05:26:00.015Z,0.00
2022-10-26T05:27:00.026Z,0.00
2022-10-26T05:28:00.007Z,0.00
2022-10-26T05:28:59.975Z,0.00
2022-10-26T05:30:00.014Z,0.00
2022-10-26T05:30:59.969Z,0.00
2022-10-26T05:31:59.959Z,0.00
2022-10-26T05:32:59.935Z,0.00
2022-10-26T05:33:59.933Z,0.00
2022-10-26T05:34:59.908Z,0.00
2022-10-26T05:35:59.900Z,0.00
2022-10-26T05:36:59.921Z,0.00
2022-10-26T05:37:59.894Z,0.00
2022-10-26T05:38:59.874Z,0.00
2022-10-26T05:39:59.862Z,0.00
2022-10-26T05:40:59.857Z,0.00
2022-10-26T05:41:59.844Z,0.00
2022-10-26T05:42:59.840Z,0.00
2022-10-26T05:43:59.820Z,0.00
2022-10-26T05:44:59.813Z,0.00
2022-10-26T05:45:59.791Z,0.00
2022-10-26T05:46:59.789Z,0.00
2022-10-26T05:48:02.569Z,0.00
2022-10-26T05:48:59.774Z,0.00
2022-10-26T05:49:59.748Z,0.00
2022-10-26T05:50:59.742Z,0.00
2022-10-26T05:51:59.746Z,0.00
2022-10-26T05:52:59.712Z,0.00
2022-10-26T05:53:59.696Z,0.00
2022-10-26T05:54:59.714Z,0.00
2022-10-26T05:55:59.686Z,0.00
2022-10-26T05:56:59.693Z,0.00
2022-10-26T05:57:59.672Z,0.00
2022-10-26T05:58:59.659Z,0.00
2022-10-26T05:59:59.629Z,0.00
2022-10-26T06:00:59.620Z,0.00
2022-10-26T06:01:59.748Z,0.00
2022-10-26T06:02:59.614Z,0.00
2022-10-26T06:03:59.594Z,0.00
2022-10-26T06:04:59.580Z,0.00
2022-10-26T06:06:01.636Z,0.00
2022-10-26T06:06:59.563Z,0.00
2022-10-26T06:07:59.554Z,0.00
2022-10-26T06:08:59.535Z,0.00
2022-10-26T06:09:59.522Z,0.00
2022-10-26T06:10:59.525Z,0.00
2022-10-26T06:11:59.503Z,0.00
2022-10-26T06:12:59.500Z,0.00
2022-10-26T06:13:59.473Z,0.00
2022-10-26T06:14:59.484Z,0.00
2022-10-26T06:15:59.448Z,0.00
2022-10-26T06:16:59.444Z,0.00
2022-10-26T06:17:59.432Z,0.00
2022-10-26T06:19:01.762Z,0.00
2022-10-26T06:19:59.424Z,0.00
2022-10-26T06:20:59.401Z,0.00
2022-10-26T06:21:59.383Z,0.00
2022-10-26T06:22:59.386Z,0.00
2022-10-26T06:23:59.376Z,0.00
2022-10-26T06:24:59.356Z,0.00
2022-10-26T06:26:03.433Z,0.00
2022-10-26T06:26:59.331Z,0.00
2022-10-26T06:27:59.316Z,0.00
2022-10-26T06:28:59.313Z,0.00
2022-10-26T06:29:59.328Z,0.00
2022-10-26T06:30:59.315Z,0.00
2022-10-26T06:31:59.270Z,0.00
2022-10-26T06:33:05.866Z,0.00
2022-10-26T06:34:00.254Z,0.00
2022-10-26T06:35:01.727Z,0.00
2022-10-26T06:35:59.229Z,0.00
2022-10-26T06:36:59.230Z,0.00
2022-10-26T06:37:59.201Z,0.00
2022-10-26T06:38:59.192Z,0.00
2022-10-26T06:39:59.188Z,0.00
2022-10-26T06:40:59.180Z,0.00
2022-10-26T06:41:59.187Z,0.00
2022-10-26T06:42:59.151Z,0.00
2022-10-26T06:43:59.136Z,0.00
2022-10-26T06:44:59.136Z,0.00
2022-10-26T06:45:59.113Z,0.00
2022-10-26T06:46:59.132Z,0.00
2022-10-26T06:47:59.105Z,0.00
2022-10-26T06:48:59.081Z,0.00
2022-10-26T06:49:59.072Z,0.00
2022-10-26T06:50:59.068Z,0.00
2022-10-26T06:51:59.045Z,0.00
2022-10-26T06:52:59.039Z,0.00
2022-10-26T06:53:59.038Z,0.00
2022-10-26T06:54:59.021Z,0.00
2022-10-26T06:55:59.020Z,0.00
2022-10-26T06:56:58.995Z,0.00
2022-10-26T06:57:58.981Z,0.00
2022-10-26T06:59:02.259Z,0.00
2022-10-26T06:59:59.962Z,0.00
2022-10-26T07:00:58.954Z,0.00
2022-10-26T07:02:01.725Z,0.00
2022-10-26T07:03:00.018Z,5.62
2022-10-26T07:03:58.917Z,5.62
2022-10-26T07:04:58.909Z,5.62
2022-10-26T07:05:58.894Z,5.62
2022-10-26T07:06:58.903Z,5.62
2022-10-26T07:07:58.898Z,11.25
2022-10-26T07:08:58.858Z,11.25
2022-10-26T07:09:58.846Z,11.25
2022-10-26T07:10:58.846Z,16.88
2022-10-26T07:11:58.825Z,16.88
2022-10-26T07:12:58.824Z,16.88
2022-10-26T07:13:58.815Z,16.88
2022-10-26T07:14:58.897Z,16.88
2022-10-26T07:15:58.789Z,16.88
2022-10-26T07:16:58.770Z,22.50
2022-10-26T07:17:58.763Z,22.50
2022-10-26T07:18:58.767Z,16.88
2022-10-26T07:19:58.733Z,16.88
2022-10-26T07:20:58.727Z,16.88
2022-10-26T07:21:58.715Z,11.25
2022-10-26T07:22:58.706Z,11.25
2022-10-26T07:23:58.735Z,11.25
2022-10-26T07:25:02.074Z,5.62
2022-10-26T07:25:58.670Z,5.62
2022-10-26T07:26:58.687Z,5.62
2022-10-26T07:27:58.671Z,5.62
2022-10-26T07:28:58.647Z,5.62
2022-10-26T07:29:58.631Z,5.62
2022-10-26T07:30:58.624Z,5.62
2022-10-26T07:31:58.611Z,5.62
2022-10-26T07:32:58.617Z,5.62
2022-10-26T07:33:58.590Z,5.62
2022-10-26T07:34:58.608Z,5.62
2022-10-26T07:35:58.571Z,5.62
2022-10-26T07:36:58.562Z,5.62
2022-10-26T07:37:58.538Z,5.62
2022-10-26T07:38:58.531Z,5.62
2022-10-26T07:40:01.413Z,5.62
2022-10-26T07:40:59.511Z,5.62
2022-10-26T07:41:58.497Z,5.62
2022-10-26T07:42:58.483Z,5.62
2022-10-26T07:43:58.471Z,11.25
2022-10-26T07:44:58.464Z,11.25
2022-10-26T07:45:58.451Z,11.25
2022-10-26T07:46:58.437Z,11.25
2022-10-26T07:47:58.452Z,11.25
2022-10-26T07:48:58.422Z,16.88
2022-10-26T07:49:58.400Z,16.88
2022-10-26T07:50:58.440Z,16.88
2022-10-26T07:51:58.379Z,16.88
2022-10-26T07:52:58.373Z,16.88
2022-10-26T07:53:58.364Z,22.50
2022-10-26T07:54:58.346Z,22.50
2022-10-26T07:55:58.340Z,22.50
2022-10-26T07:56:58.386Z,22.50
2022-10-26T07:57:58.625Z,22.50
2022-10-26T07:58:58.320Z,22.50
2022-10-26T07:59:58.301Z,28.12
2022-10-26T08:00:58.343Z,28.12
2022-10-26T08:01:58.331Z,33.75
2022-10-26T08:02:58.256Z,50.62
2022-10-26T08:03:58.242Z,39.38
2022-10-26T08:04:58.243Z,33.75
2022-10-26T08:05:58.239Z,39.38
2022-10-26T08:06:58.231Z,39.38
2022-10-26T08:07:58.209Z,56.25
2022-10-26T08:08:58.188Z,90.00
2022-10-26T08:09:58.174Z,146.25
2022-10-26T08:10:58.177Z,1569.38
2022-10-26T08:11:58.152Z,1743.75
2022-10-26T08:12:58.156Z,765.00
2022-10-26T08:13:58.133Z,1591.88
2022-10-26T08:14:58.132Z,461.25
2022-10-26T08:15:58.117Z,196.88
2022-10-26T08:16:58.101Z,95.62
2022-10-26T08:17:58.095Z,61.88
2022-10-26T08:18:58.095Z,56.25
2022-10-26T08:19:58.064Z,56.25
2022-10-26T08:21:05.112Z,50.62
2022-10-26T08:21:59.041Z,50.62
2022-10-26T08:22:58.057Z,50.62
2022-10-26T08:23:58.030Z,50.62
2022-10-26T08:24:58.015Z,50.62
2022-10-26T08:25:58.004Z,56.25
2022-10-26T08:26:58.010Z,67.50
2022-10-26T08:27:57.988Z,67.50
2022-10-26T08:28:57.967Z,67.50
2022-10-26T08:29:57.956Z,67.50
2022-10-26T08:30:57.947Z,73.12
2022-10-26T08:31:57.933Z,73.12
2022-10-26T08:32:57.942Z,73.12
2022-10-26T08:33:57.910Z,67.50
2022-10-26T08:34:57.900Z,61.88
2022-10-26T08:35:57.888Z,56.25
2022-10-26T08:36:57.898Z,56.25
2022-10-26T08:37:57.875Z,56.25
2022-10-26T08:38:57.878Z,56.25
2022-10-26T08:40:00.616Z,56.25
2022-10-26T08:40:58.834Z,56.25
2022-10-26T08:41:57.836Z,56.25
2022-10-26T08:42:57.836Z,56.25
2022-10-26T08:43:57.800Z,56.25
2022-10-26T08:44:57.789Z,50.62
2022-10-26T08:45:57.776Z,45.00
2022-10-26T08:46:57.812Z,45.00
2022-10-26T08:47:57.754Z,45.00
2022-10-26T08:48:57.757Z,45.00
2022-10-26T08:49:57.774Z,39.38
2022-10-26T08:50:57.725Z,39.38
2022-10-26T08:51:57.709Z,39.38
2022-10-26T08:52:57.712Z,33.75
2022-10-26T08:53:57.745Z,33.75
2022-10-26T08:54:57.702Z,39.38
2022-10-26T08:55:57.666Z,39.38
2022-10-26T08:56:57.659Z,39.38
2022-10-26T08:57:57.652Z,39.38
2022-10-26T08:58:57.667Z,56.25
2022-10-26T08:59:57.656Z,90.00
2022-10-26T09:00:57.660Z,101.25
2022-10-26T09:01:57.687Z,106.88
2022-10-26T09:02:57.591Z,106.88
2022-10-26T09:03:57.625Z,106.88
2022-10-26T09:04:57.569Z,106.88
2022-10-26T09:05:57.573Z,106.88
2022-10-26T09:06:57.591Z,106.88
2022-10-26T09:07:57.567Z,106.88
2022-10-26T09:08:57.528Z,106.88
2022-10-26T09:09:57.567Z,106.88
2022-10-26T09:10:57.528Z,106.88
2022-10-26T09:11:57.499Z,106.88
2022-10-26T09:12:57.484Z,106.88
2022-10-26T09:13:59.019Z,106.88
2022-10-26T09:14:57.458Z,106.88
2022-10-26T09:15:57.457Z,106.88
2022-10-26T09:16:57.437Z,101.25
2022-10-26T09:17:57.421Z,101.25
2022-10-26T09:18:59.042Z,95.62
2022-10-26T09:19:58.406Z,95.62
2022-10-26T09:20:57.491Z,95.62
2022-10-26T09:21:57.377Z,90.00
2022-10-26T09:22:57.381Z,90.00
2022-10-26T09:23:57.354Z,90.00
2022-10-26T09:24:57.345Z,90.00
2022-10-26T09:25:57.347Z,90.00
2022-10-26T09:26:57.391Z,90.00
2022-10-26T09:27:57.330Z,90.00
2022-10-26T09:28:57.300Z,90.00
2022-10-26T09:29:57.296Z,90.00
2022-10-26T09:30:57.288Z,90.00
2022-10-26T09:31:57.269Z,90.00
2022-10-26T09:32:57.298Z,84.38
2022-10-26T09:33:57.244Z,84.38
2022-10-26T09:34:57.236Z,84.38
2022-10-26T09:35:57.220Z,84.38
2022-10-26T09:36:57.266Z,84.38
2022-10-26T09:37:57.196Z,90.00
2022-10-26T09:38:57.188Z,90.00
2022-10-26T09:39:57.181Z,90.00
2022-10-26T09:40:57.176Z,90.00
2022-10-26T09:41:57.161Z,90.00
2022-10-26T09:42:57.180Z,90.00
2022-10-26T09:43:57.132Z,90.00
2022-10-26T09:44:57.130Z,90.00
2022-10-26T09:45:57.107Z,84.38
2022-10-26T09:46:57.107Z,90.00
2022-10-26T09:47:57.091Z,90.00
2022-10-26T09:48:57.109Z,90.00
2022-10-26T09:49:57.063Z,84.38
2022-10-26T09:51:01.898Z,84.38
2022-10-26T09:51:58.083Z,84.38
2022-10-26T09:52:57.049Z,84.38
2022-10-26T09:53:57.022Z,84.38
2022-10-26T09:54:57.035Z,84.38
2022-10-26T09:55:56.994Z,61.88
2022-10-26T09:56:56.999Z,50.62
2022-10-26T09:57:56.984Z,45.00
2022-10-26T09:58:56.987Z,50.62
2022-10-26T09:59:56.949Z,73.12
2022-10-26T10:00:56.944Z,73.12
2022-10-26T10:01:56.997Z,73.12
2022-10-26T10:02:56.980Z,61.88
2022-10-26T10:03:56.905Z,61.88
2022-10-26T10:04:56.895Z,50.62
2022-10-26T10:05:56.890Z,45.00
2022-10-26T10:06:56.886Z,45.00
2022-10-26T10:07:56.866Z,45.00
2022-10-26T10:09:56.839Z,50.62
2022-10-26T10:10:56.838Z,56.25
2022-10-26T10:11:56.845Z,45.00
2022-10-26T10:12:56.820Z,45.00
2022-10-26T10:13:56.793Z,39.38
2022-10-26T10:14:56.836Z,39.38
2022-10-26T10:15:56.857Z,39.38
2022-10-26T10:16:56.768Z,33.75
2022-10-26T10:17:56.959Z,33.75
2022-10-26T10:18:56.737Z,33.75
2022-10-26T10:19:56.732Z,33.75
2022-10-26T10:20:56.713Z,39.38
2022-10-26T10:21:56.714Z,39.38
2022-10-26T10:22:56.696Z,39.38
2022-10-26T10:23:56.699Z,39.38
2022-10-26T10:24:56.667Z,39.38
2022-10-26T10:25:56.740Z,45.00
2022-10-26T10:26:56.648Z,61.88
2022-10-26T10:27:56.646Z,45.00
2022-10-26T10:28:56.646Z,61.88
2022-10-26T10:29:59.947Z,78.75
2022-10-26T10:30:57.623Z,67.50
2022-10-26T10:31:56.592Z,56.25
2022-10-26T10:32:56.598Z,45.00
2022-10-26T10:33:56.574Z,45.00
2022-10-26T10:34:56.557Z,45.00
2022-10-26T10:35:56.616Z,45.00
2022-10-26T10:36:56.535Z,50.62
2022-10-26T10:37:56.533Z,45.00
2022-10-26T10:38:56.521Z,56.25
2022-10-26T10:39:56.503Z,61.88
2022-10-26T10:40:56.489Z,50.62
2022-10-26T10:41:56.482Z,50.62
2022-10-26T10:42:56.476Z,90.00
2022-10-26T10:43:56.458Z,90.00
2022-10-26T10:44:56.454Z,90.00
2022-10-26T10:45:59.461Z,90.00
2022-10-26T10:46:56.444Z,95.62
2022-10-26T10:47:56.424Z,90.00
2022-10-26T10:48:56.404Z,90.00
2022-10-26T10:49:56.413Z,84.38
2022-10-26T10:50:56.377Z,84.38
2022-10-26T10:51:56.369Z,84.38
2022-10-26T10:52:56.364Z,78.75
2022-10-26T10:53:56.350Z,84.38
2022-10-26T10:54:56.363Z,84.38
2022-10-26T10:55:56.458Z,78.75
2022-10-26T10:56:56.315Z,78.75
2022-10-26T10:57:56.312Z,78.75
2022-10-26T10:58:56.298Z,78.75
2022-10-26T10:59:56.320Z,78.75
2022-10-26T11:00:56.265Z,73.12
2022-10-26T11:01:56.369Z,73.12
2022-10-26T11:02:56.275Z,73.12
2022-10-26T11:03:56.234Z,78.75
2022-10-26T11:04:56.235Z,78.75
2022-10-26T11:05:56.223Z,73.12
2022-10-26T11:06:56.200Z,61.88
2022-10-26T11:07:56.190Z,61.88
2022-10-26T11:08:56.177Z,61.88
2022-10-26T11:09:56.188Z,61.88
2022-10-26T11:10:56.174Z,61.88
2022-10-26T11:11:56.151Z,61.88
2022-10-26T11:12:56.134Z,61.88
2022-10-26T11:13:56.125Z,61.88
2022-10-26T11:14:56.111Z,61.88
2022-10-26T11:15:56.110Z,61.88
2022-10-26T11:16:56.096Z,73.12
2022-10-26T11:17:56.085Z,67.50
2022-10-26T11:18:56.088Z,78.75
2022-10-26T11:19:56.079Z,84.38
2022-10-26T11:20:56.077Z,78.75
2022-10-26T11:21:56.036Z,78.75
2022-10-26T11:22:56.075Z,78.75
2022-10-26T11:23:56.015Z,78.75
2022-10-26T11:24:56.006Z,84.38
2022-10-26T11:25:56.002Z,73.12
2022-10-26T11:26:55.996Z,78.75
2022-10-26T11:27:55.978Z,78.75
2022-10-26T11:28:55.955Z,56.25
2022-10-26T11:29:55.946Z,78.75
2022-10-26T11:30:55.939Z,78.75
2022-10-26T11:36:39.300Z,78.75
2022-10-26T11:37:32.984Z,78.75
2022-10-26T11:38:45.427Z,95.62
2022-10-26T11:39:33.937Z,95.62
2022-10-26T11:40:32.892Z,95.62
2022-10-26T11:41:32.887Z,90.00
2022-10-26T11:42:32.918Z,90.00
2022-10-26T11:43:32.861Z,78.75
2022-10-26T11:44:32.849Z,73.12
2022-10-26T11:45:32.847Z,78.75
2022-10-26T11:46:32.846Z,78.75
2022-10-26T11:47:32.823Z,78.75
2022-10-26T11:48:32.812Z,73.12
2022-10-26T11:49:32.794Z,67.50
2022-10-26T11:50:32.787Z,67.50
2022-10-26T11:51:32.776Z,61.88
2022-10-26T11:52:32.807Z,61.88
2022-10-26T11:53:32.762Z,67.50
2022-10-26T11:54:32.742Z,67.50
2022-10-26T11:55:32.733Z,67.50
2022-10-26T11:56:32.724Z,67.50
2022-10-26T11:57:32.710Z,67.50
2022-10-26T11:58:32.753Z,67.50
2022-10-26T11:59:33.608Z,67.50
2022-10-26T12:00:32.673Z,67.50
2022-10-26T12:01:32.689Z,67.50
2022-10-26T12:02:32.711Z,67.50
2022-10-26T12:03:32.647Z,61.88
2022-10-26T12:04:32.662Z,61.88
2022-10-26T12:05:32.624Z,61.88
2022-10-26T12:06:32.607Z,61.88
2022-10-26T12:07:32.597Z,61.88
2022-10-26T12:08:32.604Z,61.88
2022-10-26T12:09:35.535Z,61.88
2022-10-26T12:10:32.585Z,61.88
2022-10-26T12:11:32.554Z,61.88
2022-10-26T12:12:35.049Z,61.88
2022-10-26T12:13:32.585Z,61.88
2022-10-26T12:14:32.524Z,56.25
2022-10-26T12:15:40.295Z,61.88
2022-10-26T12:16:33.510Z,61.88
2022-10-26T12:17:32.484Z,61.88
2022-10-26T12:18:53.983Z,61.88
2022-10-26T12:19:33.475Z,61.88
2022-10-26T12:20:32.461Z,61.88
2022-10-26T12:21:32.441Z,61.88
2022-10-26T12:22:32.457Z,56.25
2022-10-26T12:23:40.351Z,56.25
2022-10-26T12:24:33.435Z,56.25
2022-10-26T12:25:32.397Z,61.88
2022-10-26T12:26:32.392Z,61.88
2022-10-26T12:27:32.375Z,56.25
2022-10-26T12:28:32.383Z,56.25
2022-10-26T12:29:32.366Z,56.25
2022-10-26T12:30:32.353Z,56.25
2022-10-26T12:31:32.469Z,56.25
2022-10-26T12:32:32.343Z,50.62
2022-10-26T12:33:32.309Z,50.62
2022-10-26T12:34:32.314Z,50.62
2022-10-26T12:35:32.288Z,50.62
2022-10-26T12:36:32.282Z,50.62
2022-10-26T12:37:32.265Z,50.62
2022-10-26T12:38:33.804Z,50.62
2022-10-26T12:39:32.255Z,50.62
2022-10-26T12:40:32.255Z,50.62
2022-10-26T12:41:32.220Z,45.00
2022-10-26T12:42:32.211Z,45.00
2022-10-26T12:43:32.279Z,45.00
2022-10-26T12:44:32.234Z,39.38
2022-10-26T12:45:32.182Z,39.38
2022-10-26T12:46:32.176Z,33.75
2022-10-26T12:47:32.155Z,33.75
2022-10-26T12:48:39.388Z,33.75
2022-10-26T12:49:33.130Z,33.75
2022-10-26T12:50:32.130Z,33.75
2022-10-26T12:51:34.131Z,28.12
2022-10-26T12:52:32.103Z,33.75
2022-10-26T12:53:32.088Z,39.38
2022-10-26T12:54:32.091Z,33.75
2022-10-26T12:55:32.075Z,33.75
2022-10-26T12:56:32.079Z,33.75
2022-10-26T12:57:32.046Z,39.38
2022-10-26T12:58:32.043Z,39.38
2022-10-26T12:59:32.038Z,39.38
2022-10-26T13:00:32.148Z,39.38
2022-10-26T13:01:32.227Z,39.38
2022-10-26T13:02:31.992Z,39.38
2022-10-26T13:03:31.980Z,39.38
2022-10-26T13:04:32.010Z,39.38
2022-10-26T13:05:31.960Z,39.38
2022-10-26T13:06:31.957Z,45.00
2022-10-26T13:07:31.934Z,45.00
2022-10-26T13:08:31.923Z,45.00
2022-10-26T13:09:31.953Z,45.00
2022-10-26T13:10:31.927Z,39.38
2022-10-26T13:11:31.889Z,39.38
2022-10-26T13:12:31.903Z,39.38